Time;durP1;ratioP1;P1;durP2;ratioP2;P2;SDS_P1;SDS_P2;PMS_P1;PMS_P2;Temp;Humidity;BMP_temperature;BMP_pressure;BME280_temperature;BME280_humidity;BME280_pressure;Samples;Min_cycle;Max_cycle;Signal;HPM_P1;HPM_P2
2022/07/02 00:00:51;;;;;;;3.38;1.40;;;20.20;81.80;;;;;;10131277;28;20398;-57
2022/07/02 00:05:47;;;;;;;3.13;2.13;;;20.20;81.50;;;;;;10131940;28;20032;-57
2022/07/02 00:10:39;;;;;;;3.90;1.27;;;20.20;82.20;;;;;;10116075;28;20506;-60
2022/07/02 00:15:29;;;;;;;1.70;1.40;;;20.20;82.30;;;;;;10133063;28;20505;-57
2022/07/02 00:20:20;;;;;;;2.17;1.35;;;20.10;83.00;;;;;;10129362;28;20098;-52
2022/07/02 00:25:11;;;;;;;2.05;1.10;;;20.10;83.40;;;;;;10130519;28;20024;-57
2022/07/02 00:30:03;;;;;;;1.58;0.90;;;20.10;83.50;;;;;;10121418;28;20025;-56
2022/07/02 00:34:57;;;;;;;2.30;1.20;;;20.20;84.10;;;;;;10135554;28;20027;-55
2022/07/02 00:39:48;;;;;;;1.20;0.88;;;20.00;84.80;;;;;;10108987;28;20094;-59
2022/07/02 00:44:39;;;;;;;1.80;1.02;;;20.00;85.40;;;;;;10133676;28;20039;-60
2022/07/02 00:49:32;;;;;;;1.45;1.27;;;20.00;85.70;;;;;;10137832;28;20402;-55
2022/07/02 00:54:23;;;;;;;1.92;1.23;;;19.80;86.30;;;;;;10137084;28;20513;-59
2022/07/02 00:59:14;;;;;;;5.82;1.80;;;19.50;86.90;;;;;;10137494;28;20017;-53
2022/07/02 01:04:05;;;;;;;3.03;1.38;;;19.30;88.10;;;;;;10137241;28;20033;-56
2022/07/02 01:14:07;;;;;;;1.40;1.10;;;19.40;88.90;;;;;;10128035;28;20097;-56
2022/07/02 01:18:58;;;;;;;2.65;1.63;;;19.20;89.70;;;;;;10135467;28;20078;-52
2022/07/02 01:23:49;;;;;;;2.90;1.95;;;19.10;90.20;;;;;;10135370;28;20123;-61
2022/07/02 01:28:39;;;;;;;2.83;1.73;;;19.10;90.60;;;;;;10126466;28;20021;-53
2022/07/02 01:33:31;;;;;;;2.33;1.50;;;19.00;90.70;;;;;;10135321;28;20135;-52
2022/07/02 01:38:22;;;;;;;2.75;2.00;;;19.00;91.40;;;;;;10135036;28;20513;-57
2022/07/02 01:43:13;;;;;;;3.08;2.10;;;18.90;91.50;;;;;;10117477;28;20038;-56
2022/07/02 01:48:04;;;;;;;2.58;1.63;;;18.70;92.00;;;;;;10134252;28;20033;-58
2022/07/02 01:52:56;;;;;;;3.00;1.30;;;18.50;92.60;;;;;;10136275;28;20067;-52
2022/07/02 01:57:46;;;;;;;3.25;1.50;;;18.50;92.90;;;;;;10133891;28;20259;-54
2022/07/02 02:02:38;;;;;;;4.20;2.47;;;18.40;93.20;;;;;;10116501;28;20031;-51
2022/07/02 02:07:30;;;;;;;2.35;1.50;;;18.30;93.70;;;;;;10134150;28;20371;-55
2022/07/02 02:12:21;;;;;;;3.20;1.60;;;18.40;94.00;;;;;;10133268;28;20103;-52
2022/07/02 02:17:11;;;;;;;3.15;1.70;;;18.40;94.00;;;;;;10134040;28;20135;-54
2022/07/02 02:22:02;;;;;;;2.55;1.80;;;18.40;94.20;;;;;;10132086;28;20047;-54
2022/07/02 02:26:53;;;;;;;6.10;2.70;;;18.40;94.40;;;;;;10131358;28;20039;-50
2022/07/02 02:31:44;;;;;;;1.92;1.48;;;18.50;94.60;;;;;;10124790;28;20021;-56
2022/07/02 02:36:34;;;;;;;2.75;1.60;;;18.50;94.70;;;;;;10132725;28;20411;-52
2022/07/02 02:41:25;;;;;;;2.30;1.60;;;18.40;95.00;;;;;;10132941;28;20032;-50
2022/07/02 02:46:16;;;;;;;4.32;1.83;;;18.50;95.10;;;;;;10132941;28;20048;-53
2022/07/02 02:51:08;;;;;;;2.97;1.60;;;18.40;95.40;;;;;;10132242;28;20025;-51
2022/07/02 02:55:59;;;;;;;2.70;1.52;;;18.30;95.50;;;;;;10131704;28;20056;-58
2022/07/02 03:00:50;;;;;;;2.35;1.40;;;18.20;95.90;;;;;;10133167;28;20111;-52
2022/07/02 03:05:41;;;;;;;2.45;1.65;;;18.00;96.20;;;;;;10121766;28;20036;-55
2022/07/02 03:10:32;;;;;;;3.60;1.60;;;18.00;96.20;;;;;;10130297;28;20132;-53
2022/07/02 03:15:23;;;;;;;2.88;1.95;;;17.90;96.40;;;;;;10131761;28;20052;-53
2022/07/02 03:20:14;;;;;;;2.25;1.27;;;18.10;96.30;;;;;;10131641;28;20020;-51
2022/07/02 03:25:07;;;;;;;1.65;1.25;;;18.10;96.40;;;;;;10131600;28;20044;-51
2022/07/02 03:29:58;;;;;;;2.15;1.50;;;18.10;96.40;;;;;;10123783;28;20013;-52
2022/07/02 03:34:48;;;;;;;3.08;1.17;;;17.90;96.60;;;;;;10133205;28;20483;-52
2022/07/02 03:39:39;;;;;;;2.85;1.30;;;17.80;96.90;;;;;;10132662;28;20115;-55
2022/07/02 03:44:30;;;;;;;2.33;1.52;;;17.60;97.00;;;;;;10131780;28;20090;-54
2022/07/02 03:49:20;;;;;;;1.10;1.02;;;17.50;97.30;;;;;;10132262;28;20020;-59
2022/07/02 03:54:11;;;;;;;4.43;1.40;;;17.50;97.30;;;;;;10131375;28;20414;-52
2022/07/02 03:59:02;;;;;;;1.73;1.30;;;17.40;97.60;;;;;;10131889;28;20481;-52
2022/07/02 04:03:52;;;;;;;1.50;1.25;;;17.50;97.50;;;;;;10131752;28;20051;-55
2022/07/02 04:08:43;;;;;;;1.73;1.17;;;17.50;97.40;;;;;;10134002;28;20111;-53
2022/07/02 04:13:34;;;;;;;2.33;1.38;;;17.60;97.40;;;;;;10139090;28;20453;-54
2022/07/02 04:18:25;;;;;;;2.03;1.13;;;17.50;97.50;;;;;;10139215;28;20036;-51
2022/07/02 04:23:15;;;;;;;2.17;1.27;;;17.40;97.60;;;;;;10139351;28;20024;-62
2022/07/02 04:28:07;;;;;;;1.45;1.20;;;17.50;97.60;;;;;;10129628;28;20071;-57
2022/07/02 04:32:58;;;;;;;3.35;1.20;;;17.30;97.70;;;;;;10138385;28;20013;-52
2022/07/02 04:37:48;;;;;;;1.75;1.40;;;17.30;97.70;;;;;;10120171;28;20425;-54
2022/07/02 04:42:39;;;;;;;2.08;1.23;;;17.50;97.60;;;;;;10137428;28;20451;-57
2022/07/02 04:47:30;;;;;;;3.65;1.45;;;17.40;97.60;;;;;;10137772;28;20032;-55
2022/07/02 04:52:21;;;;;;;2.47;1.92;;;17.60;97.60;;;;;;10119126;28;20402;-56
2022/07/02 04:57:12;;;;;;;2.33;1.48;;;17.60;97.60;;;;;;10136826;28;20025;-52
2022/07/02 05:02:02;;;;;;;1.52;1.00;;;17.70;97.50;;;;;;10119418;28;20024;-57
2022/07/02 05:06:53;;;;;;;1.80;1.42;;;17.70;97.60;;;;;;10134518;28;20041;-51
2022/07/02 05:11:44;;;;;;;3.00;1.88;;;17.80;97.60;;;;;;10118382;28;20044;-59
2022/07/02 05:16:34;;;;;;;1.75;1.30;;;17.90;97.50;;;;;;10136699;28;20083;-54
2022/07/02 05:21:25;;;;;;;3.38;1.30;;;18.00;97.50;;;;;;10136441;28;20203;-52
2022/07/02 05:26:16;;;;;;;1.67;1.50;;;18.10;97.80;;;;;;10136268;28;20067;-53
2022/07/02 05:31:06;;;;;;;1.80;1.60;;;18.00;97.50;;;;;;10128527;28;20029;-54
2022/07/02 05:35:57;;;;;;;2.20;1.38;;;18.00;97.50;;;;;;10136742;28;20085;-56
2022/07/02 05:40:48;;;;;;;2.30;1.60;;;18.00;97.50;;;;;;10138366;28;20041;-56
2022/07/02 05:45:38;;;;;;;2.30;1.45;;;17.90;97.50;;;;;;10136165;28;20116;-52
2022/07/02 05:50:29;;;;;;;5.32;1.77;;;18.00;97.60;;;;;;10135399;28;20027;-58
2022/07/02 05:55:20;;;;;;;1.33;1.20;;;18.00;97.60;;;;;;10135063;28;20024;-51
2022/07/02 06:00:11;;;;;;;1.98;1.23;;;18.10;97.50;;;;;;10134914;28;20030;-60
2022/07/02 06:10:18;;;;;;;1.58;1.40;;;18.30;97.40;;;;;;10131192;28;20583;-53
2022/07/02 06:15:09;;;;;;;2.00;1.80;;;18.50;97.20;;;;;;10134412;28;20028;-53
2022/07/02 06:19:59;;;;;;;3.22;1.70;;;18.50;97.10;;;;;;10129521;28;20036;-56
2022/07/02 06:24:50;;;;;;;2.15;1.23;;;18.70;97.00;;;;;;10134333;28;20036;-59
2022/07/02 06:29:41;;;;;;;1.50;1.10;;;18.70;97.00;;;;;;10134804;28;20019;-55
2022/07/02 06:34:32;;;;;;;1.83;1.27;;;18.90;97.00;;;;;;10131909;28;20045;-51
2022/07/02 06:39:23;;;;;;;2.75;1.50;;;18.90;96.90;;;;;;10133636;28;20024;-54
2022/07/02 06:44:13;;;;;;;2.30;1.35;;;19.10;96.70;;;;;;10134907;28;20033;-57
2022/07/02 06:49:04;;;;;;;3.47;1.40;;;19.20;96.60;;;;;;10135924;28;20028;-56
2022/07/02 06:54:00;;;;;;;1.48;1.38;;;19.30;96.60;;;;;;10128153;28;20143;-53
2022/07/02 06:58:50;;;;;;;;;;;19.40;96.40;;;;;;10134792;28;20024;-52
2022/07/02 07:03:41;;;;;;;1.80;1.23;;;19.60;96.20;;;;;;10131943;28;19969;-56
2022/07/02 07:08:31;;;;;;;2.25;1.30;;;19.70;96.10;;;;;;10130287;28;20209;-54
2022/07/02 07:13:22;;;;;;;1.48;1.20;;;19.90;96.00;;;;;;10132579;28;20048;-54
2022/07/02 07:18:13;;;;;;;2.58;1.55;;;20.00;95.80;;;;;;10132583;28;20032;-55
2022/07/02 07:23:03;;;;;;;2.95;1.63;;;20.20;95.70;;;;;;10137333;28;20041;-54
2022/07/02 07:27:54;;;;;;;1.10;1.00;;;20.30;95.50;;;;;;10132960;28;20107;-53
2022/07/02 07:32:46;;;;;;;1.42;1.10;;;20.40;95.50;;;;;;10135496;28;20113;-50
2022/07/02 07:37:37;;;;;;;1.60;1.08;;;20.40;95.40;;;;;;10131474;28;20428;-49
2022/07/02 07:42:27;;;;;;;1.92;1.02;;;20.60;95.30;;;;;;10132007;28;20016;-49
2022/07/02 07:47:18;;;;;;;1.23;0.88;;;20.60;95.40;;;;;;10137710;28;20028;-51
2022/07/02 07:52:09;;;;;;;4.43;1.38;;;20.60;95.30;;;;;;10139165;28;20115;-51
2022/07/02 07:56:59;;;;;;;3.33;0.93;;;20.70;95.20;;;;;;10139509;28;20104;-56
2022/07/02 08:01:50;;;;;;;14.93;11.68;;;20.90;95.00;;;;;;10139952;28;20028;-56
2022/07/02 08:06:41;;;;;;;24.20;17.00;;;21.20;94.70;;;;;;10139349;28;20087;-52
2022/07/02 08:11:31;;;;;;;3.13;2.10;;;21.40;94.60;;;;;;10139295;28;20127;-52
2022/07/02 08:16:22;;;;;;;5.15;2.35;;;21.50;94.50;;;;;;10135965;28;20025;-49
2022/07/02 08:21:13;;;;;;;5.78;2.60;;;21.60;94.30;;;;;;10130909;28;20229;-51
2022/07/02 08:26:04;;;;;;;2.30;1.65;;;21.70;94.30;;;;;;10138229;28;20407;-56
2022/07/02 08:30:54;;;;;;;3.80;2.08;;;21.70;94.30;;;;;;10137712;28;20033;-63
2022/07/02 08:35:45;;;;;;;2.58;1.65;;;21.70;94.20;;;;;;10120517;28;20032;-67
2022/07/02 08:40:40;;;;;;;2.78;1.20;;;21.90;94.10;;;;;;10120417;28;20073;-60
2022/07/02 08:45:31;;;;;;;;;;;22.10;93.80;;;;;;10139235;28;20033;-53
2022/07/02 08:50:23;;;;;;;3.08;0.90;;;22.10;93.80;;;;;;10139132;28;19920;-64
2022/07/02 08:55:15;;;;;;;3.72;1.15;;;22.30;93.70;;;;;;10139247;28;20013;-58
2022/07/02 09:00:07;;;;;;;1.90;1.15;;;22.30;93.70;;;;;;10142388;28;20040;-63
2022/07/02 09:05:01;;;;;;;1.35;1.08;;;22.40;93.70;;;;;;10138840;28;20048;-56
2022/07/02 09:09:52;;;;;;;1.77;1.20;;;22.60;93.50;;;;;;10137142;28;20439;-53
2022/07/02 09:14:44;;;;;;;2.08;1.20;;;22.60;93.50;;;;;;10137028;28;20021;-51
2022/07/02 09:19:36;;;;;;;1.25;0.90;;;22.50;93.40;;;;;;10137095;28;20478;-48
2022/07/02 09:24:31;;;;;;;1.33;0.90;;;22.70;93.30;;;;;;10135867;28;20175;-51
2022/07/02 09:29:22;;;;;;;1.02;0.70;;;22.70;93.10;;;;;;10131357;28;20021;-52
2022/07/02 09:34:26;;;;;;;2.90;0.75;;;22.80;92.90;;;;;;10136491;28;20029;-54
2022/07/02 09:39:29;;;;;;;1.25;1.00;;;23.00;92.50;;;;;;10136495;28;20078;-49
2022/07/02 09:44:20;;;;;;;1.85;1.10;;;23.00;92.20;;;;;;10134965;28;20113;-56
2022/07/02 09:49:12;;;;;;;0.70;0.65;;;23.10;92.10;;;;;;10135233;28;20059;-62
2022/07/02 09:54:03;;;;;;;5.05;2.15;;;23.30;92.00;;;;;;10135897;28;20023;-63
2022/07/02 09:58:53;;;;;;;2.33;1.17;;;23.50;91.60;;;;;;10134782;28;20023;-57
2022/07/02 10:03:50;;;;;;;1.80;1.33;;;23.80;91.40;;;;;;10134102;28;20040;-61
2022/07/02 10:08:42;;;;;;;1.33;0.90;;;23.90;91.20;;;;;;10110744;28;20525;-61
2022/07/02 10:13:34;;;;;;;1.13;0.75;;;23.90;91.10;;;;;;10109902;28;20441;-61
2022/07/02 10:18:24;;;;;;;1.98;0.70;;;23.80;90.90;;;;;;10133458;28;20074;-62
2022/07/02 10:23:17;;;;;;;0.50;0.50;;;23.80;90.70;;;;;;10134538;28;20089;-59
2022/07/02 10:28:08;;;;;;;1.10;0.80;;;23.80;90.60;;;;;;10110770;28;20036;-52
2022/07/02 10:33:16;;;;;;;1.60;0.80;;;23.80;90.40;;;;;;10133437;28;20024;-61
2022/07/02 10:38:07;;;;;;;5.80;2.08;;;24.00;90.00;;;;;;10128051;28;20032;-58
2022/07/02 10:42:59;;;;;;;2.25;1.00;;;24.30;89.20;;;;;;10133498;28;20021;-63
2022/07/02 10:47:57;;;;;;;0.68;0.60;;;24.40;88.50;;;;;;10132733;28;20021;-59
2022/07/02 10:52:50;;;;;;;1.73;0.80;;;24.40;87.90;;;;;;10132376;28;20188;-57
2022/07/02 10:57:40;;;;;;;1.00;0.90;;;24.40;87.30;;;;;;10132438;28;20012;-61
2022/07/02 11:02:34;;;;;;;0.70;0.70;;;24.40;86.90;;;;;;10132191;28;20035;-60
2022/07/02 11:07:25;;;;;;;1.60;1.50;;;24.40;86.10;;;;;;10132379;28;20386;-52
2022/07/02 11:12:26;;;;;;;1.70;1.20;;;24.60;85.80;;;;;;10132543;28;20048;-54
2022/07/02 11:17:20;;;;;;;0.95;0.88;;;24.90;85.20;;;;;;10132570;28;20024;-51
2022/07/02 11:22:11;;;;;;;1.05;0.82;;;24.90;84.90;;;;;;10133082;28;20052;-59
2022/07/02 11:27:01;;;;;;;3.78;1.38;;;24.70;84.70;;;;;;10133284;28;20033;-54
2022/07/02 11:31:55;;;;;;;0.65;0.65;;;24.90;84.30;;;;;;10132029;28;20025;-57
2022/07/02 11:36:46;;;;;;;1.50;0.90;;;25.00;83.80;;;;;;10132618;28;20013;-53
2022/07/02 11:41:37;;;;;;;1.20;0.90;;;25.10;83.30;;;;;;10132602;28;20020;-62
2022/07/02 11:46:29;;;;;;;2.47;0.82;;;25.10;83.10;;;;;;10131599;28;20045;-62
2022/07/02 11:51:20;;;;;;;1.30;0.88;;;25.20;82.60;;;;;;10132265;28;20516;-64
2022/07/02 11:56:15;;;;;;;1.38;0.47;;;25.30;82.10;;;;;;10131086;28;20029;-49
2022/07/02 12:01:16;;;;;;;;;;;25.50;81.90;;;;;;10131181;28;20027;-54
2022/07/02 12:06:06;;;;;;;1.63;0.63;;;25.60;81.30;;;;;;10112186;28;20065;-59
2022/07/02 12:10:57;;;;;;;1.63;0.80;;;25.70;81.40;;;;;;10130964;28;20411;-58
2022/07/02 12:15:48;;;;;;;1.83;0.70;;;26.00;81.00;;;;;;10130778;28;20191;-51
2022/07/02 12:20:39;;;;;;;1.00;0.80;;;26.20;80.70;;;;;;10131105;28;20112;-55
2022/07/02 12:25:29;;;;;;;2.58;0.85;;;26.70;80.80;;;;;;10130904;28;20059;-51
2022/07/02 12:30:20;;;;;;;0.88;0.63;;;27.30;81.30;;;;;;10135160;28;20500;-55
2022/07/02 12:35:16;;;;;;;1.65;1.23;;;27.70;81.40;;;;;;10139778;28;20479;-61
2022/07/02 12:40:21;;;;;;;2.00;0.88;;;28.10;81.30;;;;;;10138776;28;20020;-64
2022/07/02 12:45:21;;;;;;;1.15;0.90;;;28.60;81.10;;;;;;10137812;28;20033;-58
2022/07/02 12:50:13;;;;;;;1.00;0.90;;;29.20;79.80;;;;;;10137695;28;20029;-54
2022/07/02 12:55:04;;;;;;;0.88;0.70;;;29.70;79.40;;;;;;10133724;28;20031;-60
2022/07/02 12:59:55;;;;;;;1.02;0.93;;;30.30;77.60;;;;;;10137345;28;20514;-56
2022/07/02 13:04:46;;;;;;;1.97;0.77;;;30.80;76.10;;;;;;10136979;28;20443;-50
2022/07/02 13:09:37;;;;;;;1.70;1.07;;;31.60;73.80;;;;;;10133799;28;20075;-53
2022/07/02 13:14:27;;;;;;;1.03;0.87;;;32.30;69.90;;;;;;10136579;28;20052;-59
2022/07/02 13:19:18;;;;;;;0.90;0.87;;;33.30;66.50;;;;;;10136059;28;20485;-61
2022/07/02 13:24:08;;;;;;;1.20;0.90;;;34.20;63.90;;;;;;10135715;28;20082;-50
2022/07/02 13:28:59;;;;;;;2.22;0.80;;;35.00;61.10;;;;;;10135627;28;20425;-60
2022/07/02 13:33:50;;;;;;;0.70;0.70;;;35.70;58.70;;;;;;10117484;28;20024;-60
2022/07/02 13:38:40;;;;;;;;;;;35.60;56.40;;;;;;10136475;28;20115;-54
2022/07/02 13:43:31;;;;;;;2.80;1.63;;;36.40;54.90;;;;;;10135358;28;20019;-60
2022/07/02 13:48:21;;;;;;;1.33;1.00;;;36.60;54.90;;;;;;10135346;28;20031;-64
2022/07/02 13:53:12;;;;;;;1.58;1.20;;;36.80;53.40;;;;;;10135281;28;20036;-56
2022/07/02 13:58:03;;;;;;;1.73;0.98;;;37.00;52.40;;;;;;10135551;28;20016;-53
2022/07/02 14:02:54;;;;;;;1.88;1.35;;;37.70;51.30;;;;;;10138556;28;20515;-66
2022/07/02 14:07:44;;;;;;;1.20;1.02;;;38.10;50.20;;;;;;10134080;28;20410;-58
2022/07/02 14:12:35;;;;;;;1.67;1.08;;;37.50;49.40;;;;;;10133831;28;20044;-56
2022/07/02 14:17:25;;;;;;;0.75;0.75;;;38.00;49.10;;;;;;10133555;28;20028;-56
2022/07/02 14:22:19;;;;;;;0.95;0.85;;;37.80;48.50;;;;;;10133801;28;20020;-56
2022/07/02 14:27:09;;;;;;;1.05;1.00;;;37.40;48.20;;;;;;10133636;28;20117;-55
2022/07/02 14:32:00;;;;;;;0.70;0.70;;;38.10;47.50;;;;;;10135103;28;20217;-64
2022/07/02 14:36:51;;;;;;;1.02;0.70;;;38.30;47.00;;;;;;10133484;28;20111;-55
2022/07/02 14:41:41;;;;;;;0.75;0.73;;;38.60;46.30;;;;;;10133977;28;20020;-60
2022/07/02 14:46:32;;;;;;;0.93;0.88;;;38.10;46.10;;;;;;10133548;28;20499;-53
2022/07/02 14:51:23;;;;;;;0.60;0.60;;;37.70;46.10;;;;;;10133109;28;20321;-56
2022/07/02 14:56:14;;;;;;;0.82;0.70;;;38.10;45.40;;;;;;10132121;28;20024;-62
2022/07/02 15:01:05;;;;;;;0.73;0.73;;;38.50;45.00;;;;;;10131238;28;20024;-52
2022/07/02 15:05:56;;;;;;;0.80;0.80;;;38.20;44.80;;;;;;10132486;28;20495;-61
2022/07/02 15:10:47;;;;;;;0.77;0.70;;;38.70;44.30;;;;;;10132404;28;20113;-66
2022/07/02 15:20:49;;;;;;;0.70;0.70;;;38.30;43.50;;;;;;10133279;28;20111;-56
2022/07/02 15:25:40;;;;;;;0.57;0.57;;;37.10;44.10;;;;;;10131943;28;20045;-64
2022/07/02 15:30:33;;;;;;;0.70;0.70;;;37.60;43.80;;;;;;10132741;28;20016;-65
2022/07/02 15:35:25;;;;;;;1.15;1.00;;;37.50;43.50;;;;;;10132204;28;20367;-53
2022/07/02 15:40:18;;;;;;;1.00;0.80;;;37.30;43.20;;;;;;10132823;28;20037;-52
2022/07/02 15:45:11;;;;;;;0.82;0.60;;;37.20;43.10;;;;;;10132238;28;20525;-54
2022/07/02 15:50:02;;;;;;;1.75;0.80;;;37.50;42.70;;;;;;10132806;28;20052;-58
2022/07/02 15:55:04;;;;;;;1.35;0.73;;;37.70;42.50;;;;;;10132070;28;20040;-66
2022/07/02 15:59:56;;;;;;;1.08;0.80;;;38.00;42.30;;;;;;10131930;28;20479;-60
2022/07/02 16:04:50;;;;;;;1.27;0.70;;;38.10;41.90;;;;;;10134873;28;20033;-62
2022/07/02 16:09:41;;;;;;;2.15;1.27;;;38.40;41.70;;;;;;10139810;28;20049;-63
2022/07/02 16:14:32;;;;;;;0.70;0.70;;;38.30;41.50;;;;;;10140282;28;20115;-52
2022/07/02 16:19:23;;;;;;;0.77;0.77;;;37.60;41.80;;;;;;10139340;28;20083;-51
2022/07/02 16:24:16;;;;;;;0.80;0.75;;;38.50;41.20;;;;;;10138607;28;20020;-56
2022/07/02 16:29:07;;;;;;;1.33;0.90;;;38.70;41.00;;;;;;10139174;28;20388;-61
2022/07/02 16:34:24;;;;;;;1.10;0.70;;;38.80;40.80;;;;;;10119240;28;20028;-63
2022/07/02 16:39:15;;;;;;;0.70;0.68;;;39.50;40.00;;;;;;10138794;28;20495;-61
2022/07/02 16:44:08;;;;;;;0.95;0.88;;;40.00;40.00;;;;;;10137831;28;20416;-53
2022/07/02 16:49:05;;;;;;;0.80;0.70;;;40.70;39.60;;;;;;10136001;28;20312;-61
2022/07/02 16:53:55;;;;;;;0.80;0.80;;;41.30;39.20;;;;;;10136253;28;20028;-61
2022/07/02 16:58:47;;;;;;;2.80;0.90;;;41.90;38.80;;;;;;10137106;28;20017;-59
2022/07/02 17:03:39;;;;;;;0.90;0.80;;;41.80;38.60;;;;;;10134837;28;20052;-67
2022/07/02 17:08:32;;;;;;;1.60;0.85;;;41.30;38.60;;;;;;10134276;28;20349;-51
2022/07/02 17:13:22;;;;;;;1.88;0.90;;;41.40;38.30;;;;;;10133075;28;20093;-58
2022/07/02 17:18:13;;;;;;;;;;;40.80;38.10;;;;;;10134312;28;20024;-55
2022/07/02 17:23:04;;;;;;;2.03;1.03;;;41.10;37.70;;;;;;10116825;28;20413;-59
2022/07/02 17:27:54;;;;;;;;;;;40.70;38.00;;;;;;10147671;28;20077;-67
2022/07/02 17:32:45;;;;;;;1.80;0.90;;;39.80;38.00;;;;;;10135991;28;20293;-49
2022/07/02 17:37:35;;;;;;;2.05;0.80;;;39.80;38.00;;;;;;10136559;28;20538;-68
2022/07/02 17:42:26;;;;;;;1.48;1.02;;;40.50;38.20;;;;;;10117289;28;20108;-60
2022/07/02 17:47:17;;;;;;;0.70;0.70;;;41.00;37.30;;;;;;10117066;28;20399;-64
2022/07/02 17:52:08;;;;;;;;;;;41.30;37.00;;;;;;10136365;28;20044;-53
2022/07/02 17:56:59;;;;;;;3.17;0.60;;;41.60;36.70;;;;;;10136081;28;19904;-63
2022/07/02 18:01:49;;;;;;;54.93;49.53;;;40.20;37.50;;;;;;10135845;28;20036;-55
2022/07/02 18:06:40;;;;;;;3.23;2.93;;;39.90;37.30;;;;;;10135674;28;20318;-68
2022/07/02 18:11:31;;;;;;;1.42;1.27;;;36.10;39.80;;;;;;10135044;28;20049;-52
2022/07/02 18:16:22;;;;;;;1.65;1.20;;;33.80;41.10;;;;;;10135495;28;20029;-64
2022/07/02 18:21:13;;;;;;;4.22;1.42;;;32.80;41.60;;;;;;10136578;28;20028;-61
2022/07/02 18:26:03;;;;;;;2.92;1.30;;;32.70;41.10;;;;;;10118343;28;20170;-64
2022/07/02 18:30:54;;;;;;;2.70;1.98;;;31.90;41.70;;;;;;10121853;28;20025;-66
2022/07/02 18:35:45;;;;;;;4.20;3.30;;;31.60;42.00;;;;;;10130577;28;20138;-64
2022/07/02 18:40:36;;;;;;;1.35;1.00;;;31.40;42.20;;;;;;10115047;28;20020;-52
2022/07/02 18:45:27;;;;;;;1.10;1.00;;;31.00;42.60;;;;;;10131675;28;20040;-63
2022/07/02 18:50:18;;;;;;;1.42;1.25;;;30.60;43.20;;;;;;10133904;28;20047;-58
2022/07/02 18:55:09;;;;;;;2.20;1.25;;;30.30;43.60;;;;;;10132975;28;20032;-68
2022/07/02 19:00:00;;;;;;;2.20;1.20;;;30.20;43.90;;;;;;10132792;28;20037;-58
2022/07/02 19:04:51;;;;;;;1.60;1.08;;;30.00;44.30;;;;;;10132308;28;20049;-56
2022/07/02 19:09:44;;;;;;;2.05;1.63;;;29.90;44.50;;;;;;10132887;28;20131;-65
2022/07/02 19:14:35;;;;;;;2.50;1.15;;;29.90;44.70;;;;;;10132801;28;20035;-60
2022/07/02 19:19:26;;;;;;;1.98;1.60;;;29.80;44.90;;;;;;10133623;28;20033;-68
2022/07/02 19:24:16;;;;;;;2.53;1.30;;;29.60;45.50;;;;;;10133397;28;20195;-65
2022/07/02 19:34:18;;;;;;;1.20;1.02;;;29.40;46.10;;;;;;10132685;28;20059;-65
2022/07/02 19:39:11;;;;;;;2.20;1.38;;;29.30;46.20;;;;;;10135800;28;20516;-60
2022/07/02 19:44:02;;;;;;;4.83;1.97;;;29.30;46.30;;;;;;10139548;28;20036;-58
2022/07/02 19:48:54;;;;;;;11.60;7.43;;;29.20;46.50;;;;;;10140364;28;20021;-64
2022/07/02 19:53:46;;;;;;;4.60;3.15;;;29.10;47.00;;;;;;10139422;28;20028;-67
2022/07/02 19:58:36;;;;;;;3.67;2.33;;;28.90;47.10;;;;;;10139576;28;20393;-60
2022/07/02 20:03:27;;;;;;;1.95;1.70;;;28.90;47.50;;;;;;10138579;28;20032;-63
2022/07/02 20:08:18;;;;;;;4.25;3.08;;;28.80;47.70;;;;;;10129790;28;20033;-67
2022/07/02 20:13:08;;;;;;;5.07;1.85;;;28.70;48.00;;;;;;10131695;28;20049;-67
2022/07/02 20:17:59;;;;;;;4.93;2.97;;;28.70;48.30;;;;;;10133086;28;20086;-59
2022/07/02 20:22:50;;;;;;;3.47;2.55;;;28.70;48.50;;;;;;10138682;28;20469;-61
2022/07/02 20:27:41;;;;;;;4.97;2.63;;;28.60;48.60;;;;;;10140015;28;20064;-51
2022/07/02 20:32:32;;;;;;;4.00;2.65;;;28.40;48.80;;;;;;10137980;28;20029;-63
2022/07/02 20:37:23;;;;;;;4.57;2.90;;;28.40;49.00;;;;;;10138127;28;20020;-68
2022/07/02 20:42:14;;;;;;;6.55;3.40;;;28.30;49.20;;;;;;10137873;28;20024;-61
2022/07/02 20:47:05;;;;;;;6.18;3.33;;;28.20;49.60;;;;;;10120229;28;20033;-54
2022/07/02 20:51:56;;;;;;;3.38;3.08;;;28.00;49.70;;;;;;10137582;28;20025;-59
2022/07/02 20:56:47;;;;;;;5.60;4.20;;;27.90;50.00;;;;;;10137393;28;20068;-61
2022/07/02 21:01:38;;;;;;;4.90;2.55;;;27.90;50.00;;;;;;10137250;28;20108;-58
2022/07/02 21:06:29;;;;;;;7.35;2.88;;;27.80;50.30;;;;;;10134927;28;20032;-62
2022/07/02 21:11:20;;;;;;;5.78;2.88;;;27.70;50.50;;;;;;10136094;28;20055;-62
2022/07/02 21:16:11;;;;;;;6.78;3.80;;;27.70;50.90;;;;;;10136834;28;20056;-68
2022/07/02 21:21:02;;;;;;;9.68;4.35;;;27.60;51.10;;;;;;10136526;28;20533;-63
2022/07/02 21:25:54;;;;;;;9.05;4.32;;;27.50;51.40;;;;;;10137699;28;20029;-62
2022/07/02 21:30:44;;;;;;;4.32;3.20;;;27.50;51.80;;;;;;10137409;28;20415;-64
2022/07/02 21:35:40;;;;;;;8.10;4.07;;;27.40;51.90;;;;;;10135475;28;20076;-61
2022/07/02 21:40:30;;;;;;;5.32;3.00;;;27.30;52.30;;;;;;10136459;28;20463;-64
2022/07/02 21:45:21;;;;;;;6.03;3.05;;;27.30;52.50;;;;;;10136181;28;20120;-64
2022/07/02 21:50:12;;;;;;;9.80;4.72;;;27.30;52.80;;;;;;10135535;28;20437;-60
2022/07/02 21:55:03;;;;;;;5.85;3.70;;;27.30;52.90;;;;;;10134981;28;20506;-62
2022/07/02 21:59:54;;;;;;;4.75;3.30;;;27.10;53.10;;;;;;10135589;28;20675;-59
2022/07/02 22:04:44;;;;;;;4.93;3.13;;;27.00;53.60;;;;;;10134489;28;20139;-50
2022/07/02 22:09:35;;;;;;;7.28;3.72;;;26.80;54.00;;;;;;10134549;28;20045;-68
2022/07/02 22:14:26;;;;;;;6.40;3.33;;;26.90;54.00;;;;;;10134087;28;20447;-65
2022/07/02 22:19:16;;;;;;;5.55;3.35;;;26.80;54.10;;;;;;10134356;28;20305;-67
2022/07/02 22:24:07;;;;;;;7.05;3.35;;;26.60;54.40;;;;;;10134104;28;20029;-67
2022/07/02 22:28:58;;;;;;;6.20;3.97;;;26.40;54.70;;;;;;10133981;28;20028;-61
2022/07/02 22:33:49;;;;;;;6.35;4.00;;;26.10;55.40;;;;;;10133603;28;20495;-63
2022/07/02 22:38:39;;;;;;;6.20;3.55;;;26.00;55.90;;;;;;10134016;28;20512;-63
2022/07/02 22:43:30;;;;;;;3.97;3.35;;;25.90;56.30;;;;;;10133922;28;20028;-65
2022/07/02 22:48:21;;;;;;;7.35;4.03;;;25.80;56.90;;;;;;10133644;28;20062;-55
2022/07/02 22:53:11;;;;;;;6.85;4.00;;;25.80;57.40;;;;;;10133619;28;20017;-68
2022/07/02 22:58:03;;;;;;;4.93;3.30;;;25.70;57.90;;;;;;10133473;28;20372;-61
2022/07/02 23:02:54;;;;;;;4.82;2.60;;;25.60;58.30;;;;;;10132516;28;20020;-56
2022/07/02 23:07:45;;;;;;;4.82;2.22;;;25.40;58.80;;;;;;10133570;28;20525;-54
2022/07/02 23:12:35;;;;;;;6.85;2.65;;;25.30;59.40;;;;;;10132098;28;20049;-63
2022/07/02 23:17:26;;;;;;;6.13;1.92;;;25.20;59.70;;;;;;10133278;28;20020;-58
2022/07/02 23:22:18;;;;;;;3.35;2.25;;;24.90;60.20;;;;;;10132385;28;20117;-59
2022/07/02 23:27:08;;;;;;;3.50;1.85;;;24.60;60.90;;;;;;10132117;28;20039;-61
2022/07/02 23:32:00;;;;;;;3.92;1.92;;;24.40;61.50;;;;;;10132669;28;20028;-55
2022/07/02 23:36:57;;;;;;;2.13;1.38;;;24.40;61.80;;;;;;10132246;28;20139;-48
2022/07/02 23:41:48;;;;;;;7.15;2.03;;;24.30;62.00;;;;;;10132069;28;20017;-57
2022/07/02 23:46:40;;;;;;;4.57;2.00;;;24.40;62.30;;;;;;10132127;28;20052;-53
2022/07/02 23:51:33;;;;;;;3.13;2.13;;;24.50;62.70;;;;;;10132826;28;20094;-52
2022/07/02 23:56:26;;;;;;;5.10;2.42;;;24.50;63.10;;;;;;10131381;28;20343;-53
